Time;durP1;ratioP1;P1;durP2;ratioP2;P2;SDS_P1;SDS_P2;PMS_P1;PMS_P2;Temp;Humidity;BMP_temperature;BMP_pressure;BME280_temperature;BME280_humidity;BME280_pressure;Samples;Min_cycle;Max_cycle;Signal;HPM_P1;HPM_P2
2023/05/22 00:02:01;;;;;;;9.93;5.68;;;;;;;;;;5050965;28;20120;-77
2023/05/22 00:04:28;;;;;;;11.80;6.03;;;;;;;;;;5053021;28;20028;-77
2023/05/22 00:06:55;;;;;;;14.60;6.20;;;;;;;;;;5062598;28;20082;-76
2023/05/22 00:09:21;;;;;;;11.25;5.88;;;;;;;;;;5062423;28;20024;-77
2023/05/22 00:11:47;;;;;;;13.95;6.50;;;;;;;;;;5067881;28;20025;-78
2023/05/22 00:14:13;;;;;;;13.73;6.40;;;;;;;;;;5059500;28;20378;-78
2023/05/22 00:16:42;;;;;;;18.27;7.35;;;;;;;;;;5061916;28;20489;-76
2023/05/22 00:19:12;;;;;;;11.48;5.75;;;;;;;;;;5067125;28;20382;-78
2023/05/22 00:21:41;;;;;;;10.60;5.53;;;;;;;;;;5075022;28;20020;-77
2023/05/22 00:24:07;;;;;;;11.88;6.15;;;;;;;;;;5059642;28;20056;-77
2023/05/22 00:26:33;;;;;;;9.27;5.32;;;;;;;;;;5070064;28;20128;-76
2023/05/22 00:29:00;;;;;;;11.95;6.47;;;;;;;;;;5063205;28;20438;-77
2023/05/22 00:31:26;;;;;;;10.32;5.68;;;;;;;;;;5065487;28;20510;-77
2023/05/22 00:33:52;;;;;;;12.82;7.00;;;;;;;;;;5068162;28;20463;-77
2023/05/22 00:36:18;;;;;;;11.25;6.22;;;;;;;;;;5061587;28;20025;-77
2023/05/22 00:38:45;;;;;;;10.77;6.15;;;;;;;;;;5061956;28;20028;-77
2023/05/22 00:41:11;;;;;;;11.73;6.25;;;;;;;;;;5063298;28;20024;-77
2023/05/22 00:43:38;;;;;;;11.05;5.68;;;;;;;;;;5060475;28;20367;-78
2023/05/22 00:46:06;;;;;;;11.68;6.03;;;;;;;;;;5069138;28;20448;-77
2023/05/22 00:48:32;;;;;;;11.40;5.85;;;;;;;;;;5061765;28;20021;-77
2023/05/22 00:51:00;;;;;;;9.48;6.03;;;;;;;;;;5068366;28;20052;-76
2023/05/22 00:53:27;;;;;;;11.40;5.07;;;;;;;;;;5063231;28;20479;-78
2023/05/22 00:55:53;;;;;;;13.63;5.93;;;;;;;;;;5061617;28;20031;-78
2023/05/22 00:58:20;;;;;;;11.07;5.88;;;;;;;;;;5063470;28;20477;-77
2023/05/22 01:00:46;;;;;;;10.23;6.22;;;;;;;;;;5061817;28;20029;-78
2023/05/22 01:03:13;;;;;;;17.30;7.05;;;;;;;;;;5058027;28;20138;-77
2023/05/22 01:05:40;;;;;;;12.85;5.63;;;;;;;;;;5053349;28;20031;-78
2023/05/22 01:08:07;;;;;;;14.55;6.95;;;;;;;;;;5064487;28;20569;-77
2023/05/22 01:10:35;;;;;;;9.93;6.00;;;;;;;;;;5065842;28;20478;-78
2023/05/22 01:13:08;;;;;;;10.38;5.97;;;;;;;;;;5067675;28;20114;-76
2023/05/22 01:15:43;;;;;;;12.68;5.82;;;;;;;;;;5069642;28;20066;-78
2023/05/22 01:18:11;;;;;;;;;;;;;;;;;;5061758;28;20024;-77
2023/05/22 01:20:47;;;;;;;12.93;5.75;;;;;;;;;;5068755;28;19904;-77
2023/05/22 01:23:32;;;;;;;8.30;5.13;;;;;;;;;;5064462;28;20040;-77
2023/05/22 01:26:07;;;;;;;16.60;5.15;;;;;;;;;;5068429;28;20041;-77
2023/05/22 01:28:42;;;;;;;10.30;5.55;;;;;;;;;;5072373;28;20506;-77
2023/05/22 01:31:10;;;;;;;18.27;6.33;;;;;;;;;;5065355;28;20037;-78
2023/05/22 01:33:50;;;;;;;7.20;4.72;;;;;;;;;;5065842;28;20025;-77
2023/05/22 01:36:19;;;;;;;12.65;6.05;;;;;;;;;;5067920;28;20056;-76
2023/05/22 01:38:45;;;;;;;12.38;5.70;;;;;;;;;;5067331;28;20575;-78
2023/05/22 01:41:12;;;;;;;11.93;5.22;;;;;;;;;;5067717;28;20123;-76
2023/05/22 01:43:38;;;;;;;13.13;5.45;;;;;;;;;;5071439;28;20652;-77
2023/05/22 01:46:05;;;;;;;10.48;5.75;;;;;;;;;;5069759;28;20036;-77
2023/05/22 01:48:32;;;;;;;15.20;5.72;;;;;;;;;;5069019;28;20082;-77
2023/05/22 01:51:01;;;;;;;13.82;6.72;;;;;;;;;;5064178;28;20054;-77
2023/05/22 01:53:33;;;;;;;12.55;6.47;;;;;;;;;;5070189;28;20017;-77
2023/05/22 01:56:19;;;;;;;12.75;6.20;;;;;;;;;;5069240;28;20389;-78
2023/05/22 01:58:48;;;;;;;9.52;5.95;;;;;;;;;;5064298;28;20020;-76
2023/05/22 02:01:15;;;;;;;12.32;6.55;;;;;;;;;;5064935;28;20016;-76
2023/05/22 02:03:42;;;;;;;14.80;6.35;;;;;;;;;;5069159;28;20075;-77
2023/05/22 02:06:09;;;;;;;12.75;6.40;;;;;;;;;;5068474;28;20029;-76
2023/05/22 02:08:37;;;;;;;16.50;7.07;;;;;;;;;;5072276;28;20044;-77
2023/05/22 02:11:04;;;;;;;12.02;6.07;;;;;;;;;;5067700;28;20734;-77
2023/05/22 02:13:30;;;;;;;13.68;6.30;;;;;;;;;;5060652;28;20033;-77
2023/05/22 02:15:57;;;;;;;12.50;6.15;;;;;;;;;;5067516;28;20029;-78
2023/05/22 02:18:30;;;;;;;14.68;6.47;;;;;;;;;;5067974;28;20017;-77
2023/05/22 02:20:57;;;;;;;14.70;6.28;;;;;;;;;;5072319;28;20066;-78
2023/05/22 02:23:23;;;;;;;11.77;5.95;;;;;;;;;;5069898;28;20089;-77
2023/05/22 02:25:49;;;;;;;14.68;6.15;;;;;;;;;;5072471;28;20024;-78
2023/05/22 02:28:15;;;;;;;11.45;5.53;;;;;;;;;;5067584;28;20352;-76
2023/05/22 02:30:42;;;;;;;11.40;5.50;;;;;;;;;;5066474;28;20021;-77
2023/05/22 02:33:08;;;;;;;10.85;5.90;;;;;;;;;;5064403;28;20036;-77
2023/05/22 02:35:34;;;;;;;9.38;4.85;;;;;;;;;;5054766;28;20024;-77
2023/05/22 02:38:01;;;;;;;10.55;5.30;;;;;;;;;;5061322;28;20067;-78
2023/05/22 02:40:27;;;;;;;12.85;6.00;;;;;;;;;;5065444;28;20032;-76
2023/05/22 02:42:53;;;;;;;8.82;4.80;;;;;;;;;;5064763;28;20021;-77
2023/05/22 02:45:20;;;;;;;11.48;5.38;;;;;;;;;;5065189;28;20051;-77
2023/05/22 02:47:46;;;;;;;8.88;4.32;;;;;;;;;;5062654;28;20472;-76
2023/05/22 02:50:12;;;;;;;7.57;4.88;;;;;;;;;;5065212;28;20048;-77
2023/05/22 02:52:38;;;;;;;6.95;3.80;;;;;;;;;;5069225;28;20146;-78
2023/05/22 02:55:06;;;;;;;9.65;4.13;;;;;;;;;;5067562;28;20517;-78
2023/05/22 02:57:32;;;;;;;7.55;4.00;;;;;;;;;;5060022;28;20016;-77
2023/05/22 02:59:58;;;;;;;6.82;4.20;;;;;;;;;;5061570;28;20029;-78
2023/05/22 03:02:28;;;;;;;6.45;3.78;;;;;;;;;;5066383;28;20425;-77
2023/05/22 03:04:57;;;;;;;6.25;2.92;;;;;;;;;;5062230;28;20028;-78
2023/05/22 03:07:25;;;;;;;9.50;3.63;;;;;;;;;;5059870;28;20035;-77
2023/05/22 03:09:51;;;;;;;6.60;3.08;;;;;;;;;;5063239;28;20028;-77
2023/05/22 03:12:17;;;;;;;13.13;4.35;;;;;;;;;;5074038;28;20035;-77
2023/05/22 03:14:44;;;;;;;6.75;2.80;;;;;;;;;;5059984;28;20344;-77
2023/05/22 03:17:10;;;;;;;3.53;2.72;;;;;;;;;;5063966;28;20029;-77
2023/05/22 03:19:36;;;;;;;6.40;2.70;;;;;;;;;;5064838;28;20032;-77
2023/05/22 03:22:02;;;;;;;7.53;4.05;;;;;;;;;;5066538;28;20059;-77
2023/05/22 03:24:28;;;;;;;5.63;3.00;;;;;;;;;;5067937;28;20044;-77
2023/05/22 03:26:54;;;;;;;5.25;2.90;;;;;;;;;;5063093;28;20108;-78
2023/05/22 03:29:21;;;;;;;5.90;2.65;;;;;;;;;;5071467;28;20024;-75
2023/05/22 03:31:47;;;;;;;4.18;2.30;;;;;;;;;;5065850;28;20108;-77
2023/05/22 03:34:13;;;;;;;7.32;3.15;;;;;;;;;;5069695;28;20020;-77
2023/05/22 03:36:40;;;;;;;8.13;3.33;;;;;;;;;;5069570;28;20032;-75
2023/05/22 03:39:06;;;;;;;11.18;3.67;;;;;;;;;;5064616;28;20032;-78
2023/05/22 03:41:32;;;;;;;7.03;2.80;;;;;;;;;;5062345;28;20020;-78
2023/05/22 03:43:58;;;;;;;8.23;2.78;;;;;;;;;;5064165;28;20024;-77
2023/05/22 03:46:25;;;;;;;6.40;2.50;;;;;;;;;;5061797;28;20147;-77
2023/05/22 03:48:51;;;;;;;6.53;3.03;;;;;;;;;;5057024;28;20024;-78
2023/05/22 03:51:17;;;;;;;6.18;2.63;;;;;;;;;;5059250;28;20483;-77
2023/05/22 03:53:43;;;;;;;6.70;3.40;;;;;;;;;;5064179;28;20017;-77
2023/05/22 03:56:09;;;;;;;7.38;3.42;;;;;;;;;;5064609;28;20091;-77
2023/05/22 03:58:35;;;;;;;6.18;3.08;;;;;;;;;;5067467;28;20135;-74
2023/05/22 04:01:02;;;;;;;6.13;3.03;;;;;;;;;;5065308;28;20794;-77
2023/05/22 04:03:28;;;;;;;8.77;2.85;;;;;;;;;;5066436;28;20078;-76
2023/05/22 04:05:55;;;;;;;5.95;2.80;;;;;;;;;;5061841;28;20514;-77
2023/05/22 04:08:21;;;;;;;9.10;3.03;;;;;;;;;;5063952;28;20021;-76
2023/05/22 04:10:47;;;;;;;8.00;3.10;;;;;;;;;;5064627;28;20020;-78
2023/05/22 04:13:14;;;;;;;7.38;3.50;;;;;;;;;;5066290;28;20059;-77
2023/05/22 04:15:42;;;;;;;7.05;3.25;;;;;;;;;;5054867;28;20017;-77
2023/05/22 04:18:08;;;;;;;9.07;3.00;;;;;;;;;;5077991;28;20074;-77
2023/05/22 04:20:34;;;;;;;11.13;4.03;;;;;;;;;;5062192;28;20501;-77
2023/05/22 04:23:00;;;;;;;7.25;4.03;;;;;;;;;;5060565;28;20144;-77
2023/05/22 04:25:26;;;;;;;6.22;2.65;;;;;;;;;;5057405;28;20029;-77
2023/05/22 04:27:53;;;;;;;10.38;2.83;;;;;;;;;;5056744;28;20021;-77
2023/05/22 04:30:20;;;;;;;7.78;3.58;;;;;;;;;;5062699;28;20032;-77
2023/05/22 04:32:46;;;;;;;6.57;3.35;;;;;;;;;;5060895;28;20036;-76
2023/05/22 04:35:17;;;;;;;8.23;3.10;;;;;;;;;;5063131;28;20036;-78
2023/05/22 04:37:44;;;;;;;3.67;2.72;;;;;;;;;;5065463;28;20043;-77
2023/05/22 04:40:11;;;;;;;6.30;2.63;;;;;;;;;;5061785;28;20438;-77
2023/05/22 04:42:38;;;;;;;6.70;3.00;;;;;;;;;;5074861;28;20103;-78
2023/05/22 04:45:05;;;;;;;5.25;2.90;;;;;;;;;;5054230;28;20526;-78
2023/05/22 04:47:31;;;;;;;6.65;3.20;;;;;;;;;;5064091;28;20516;-77
2023/05/22 04:49:58;;;;;;;7.13;2.85;;;;;;;;;;5062198;28;20029;-78
2023/05/22 04:52:25;;;;;;;6.43;2.53;;;;;;;;;;5057573;28;20033;-78
2023/05/22 04:54:51;;;;;;;5.25;2.95;;;;;;;;;;5065626;28;20020;-77
2023/05/22 04:57:20;;;;;;;6.63;3.38;;;;;;;;;;5064991;28;20035;-78
2023/05/22 04:59:46;;;;;;;6.25;2.78;;;;;;;;;;5062335;28;20042;-77
2023/05/22 05:02:13;;;;;;;4.30;2.50;;;;;;;;;;5065427;28;20083;-79
2023/05/22 05:04:39;;;;;;;9.70;3.95;;;;;;;;;;5066753;28;20060;-77
2023/05/22 05:07:05;;;;;;;5.57;3.17;;;;;;;;;;5065666;28;20090;-77
2023/05/22 05:09:32;;;;;;;7.60;3.33;;;;;;;;;;5066693;28;20043;-78
2023/05/22 05:11:58;;;;;;;7.35;3.05;;;;;;;;;;5065198;28;20021;-76
2023/05/22 05:14:24;;;;;;;4.35;2.78;;;;;;;;;;5064388;28;20021;-78
2023/05/22 05:16:50;;;;;;;6.05;2.72;;;;;;;;;;5063510;28;20024;-77
2023/05/22 05:19:20;;;;;;;9.07;4.35;;;;;;;;;;5062167;28;20116;-77
2023/05/22 05:21:49;;;;;;;8.40;3.10;;;;;;;;;;5059170;28;20078;-77
2023/05/22 05:24:16;;;;;;;8.45;3.10;;;;;;;;;;5066403;28;20048;-77
2023/05/22 05:26:43;;;;;;;5.97;2.58;;;;;;;;;;5069868;28;20040;-77
2023/05/22 05:29:09;;;;;;;10.73;3.67;;;;;;;;;;5062612;28;20124;-77
2023/05/22 05:31:35;;;;;;;5.07;2.63;;;;;;;;;;5064003;28;20025;-77
2023/05/22 05:34:01;;;;;;;5.70;2.83;;;;;;;;;;5064447;28;20039;-78
2023/05/22 05:36:27;;;;;;;6.57;2.63;;;;;;;;;;5063144;28;20032;-77
2023/05/22 05:38:55;;;;;;;7.65;3.38;;;;;;;;;;5064796;28;20032;-78
2023/05/22 05:41:21;;;;;;;6.03;3.20;;;;;;;;;;5060529;28;20024;-78
2023/05/22 05:43:47;;;;;;;8.50;3.25;;;;;;;;;;5064877;28;20024;-77
2023/05/22 05:46:14;;;;;;;7.40;3.30;;;;;;;;;;5062835;28;20036;-78
2023/05/22 05:48:40;;;;;;;5.20;2.95;;;;;;;;;;5063159;28;20032;-77
2023/05/22 05:51:06;;;;;;;6.22;2.60;;;;;;;;;;5053802;28;20204;-77
2023/05/22 05:53:32;;;;;;;7.10;3.40;;;;;;;;;;5061382;28;20035;-78
2023/05/22 05:55:58;;;;;;;7.38;3.70;;;;;;;;;;5057772;28;20032;-78
2023/05/22 05:58:24;;;;;;;6.60;2.70;;;;;;;;;;5058159;28;20083;-78
2023/05/22 06:00:50;;;;;;;10.90;3.50;;;;;;;;;;5063058;28;20029;-79
2023/05/22 06:03:16;;;;;;;7.28;3.10;;;;;;;;;;5062974;28;20537;-78
2023/05/22 06:05:44;;;;;;;8.73;3.10;;;;;;;;;;5054867;28;20025;-79
2023/05/22 06:08:12;;;;;;;7.13;3.08;;;;;;;;;;5061151;28;20028;-78
2023/05/22 06:10:38;;;;;;;8.30;2.83;;;;;;;;;;5054016;28;20127;-78
2023/05/22 06:13:04;;;;;;;8.77;2.78;;;;;;;;;;5067743;28;20046;-78
2023/05/22 06:15:30;;;;;;;4.95;3.13;;;;;;;;;;5060839;28;20029;-78
2023/05/22 06:17:56;;;;;;;6.28;2.63;;;;;;;;;;5060054;28;20074;-78
2023/05/22 06:20:26;;;;;;;6.43;3.00;;;;;;;;;;5055743;28;20047;-77
2023/05/22 06:22:52;;;;;;;10.30;2.47;;;;;;;;;;5013017;28;1346048;-77
2023/05/22 06:25:19;;;;;;;9.50;3.75;;;;;;;;;;5067795;28;20032;-77
2023/05/22 06:27:46;;;;;;;6.25;4.22;;;;;;;;;;5062570;28;20097;-77
2023/05/22 06:30:12;;;;;;;8.98;3.33;;;;;;;;;;5057370;28;20032;-78
2023/05/22 06:32:39;;;;;;;8.65;3.20;;;;;;;;;;5064275;28;20041;-77
2023/05/22 06:35:05;;;;;;;6.07;3.08;;;;;;;;;;5061455;28;20359;-76
2023/05/22 06:37:34;;;;;;;12.65;3.67;;;;;;;;;;5063348;28;20027;-78
2023/05/22 06:40:00;;;;;;;12.85;3.08;;;;;;;;;;5061806;28;20036;-78
2023/05/22 06:42:26;;;;;;;5.18;2.83;;;;;;;;;;5060237;28;20111;-78
2023/05/22 06:44:52;;;;;;;7.13;2.90;;;;;;;;;;5057530;28;20037;-78
2023/05/22 06:47:19;;;;;;;9.18;2.70;;;;;;;;;;5064383;28;20090;-78
2023/05/22 06:49:45;;;;;;;8.27;3.00;;;;;;;;;;5057285;28;20032;-78
2023/05/22 06:52:11;;;;;;;8.20;4.60;;;;;;;;;;5058233;28;20494;-77
2023/05/22 06:54:41;;;;;;;10.45;3.03;;;;;;;;;;5060935;28;20056;-77
2023/05/22 06:57:07;;;;;;;12.02;3.33;;;;;;;;;;5059479;28;20494;-77
2023/05/22 06:59:34;;;;;;;7.85;2.80;;;;;;;;;;5065150;28;20028;-78
2023/05/22 07:02:00;;;;;;;8.32;3.55;;;;;;;;;;5062437;28;20550;-77
2023/05/22 07:04:26;;;;;;;5.43;2.63;;;;;;;;;;5062377;28;20032;-78
2023/05/22 07:06:52;;;;;;;10.07;3.55;;;;;;;;;;5057875;28;20032;-78
2023/05/22 07:09:19;;;;;;;7.18;3.10;;;;;;;;;;5061735;28;20106;-78
2023/05/22 07:11:45;;;;;;;8.63;2.90;;;;;;;;;;5065240;28;20064;-78
2023/05/22 07:14:11;;;;;;;9.30;3.15;;;;;;;;;;5058469;28;20024;-78
2023/05/22 07:16:39;;;;;;;7.22;3.10;;;;;;;;;;5062259;28;20131;-78
2023/05/22 07:19:05;;;;;;;7.85;2.72;;;;;;;;;;5065207;28;20032;-78
2023/05/22 07:21:34;;;;;;;5.55;2.45;;;;;;;;;;5065652;28;20491;-78
2023/05/22 07:24:02;;;;;;;7.07;3.05;;;;;;;;;;5061545;28;20198;-78
2023/05/22 07:26:28;;;;;;;6.38;3.45;;;;;;;;;;5063609;28;20047;-78
2023/05/22 07:28:54;;;;;;;7.80;3.00;;;;;;;;;;5070211;28;20024;-79
2023/05/22 07:31:21;;;;;;;6.05;2.45;;;;;;;;;;5073337;28;20035;-78
2023/05/22 07:33:47;;;;;;;9.60;2.95;;;;;;;;;;5064663;28;20021;-78
2023/05/22 07:36:13;;;;;;;6.55;2.67;;;;;;;;;;5062716;28;20094;-78
2023/05/22 07:38:39;;;;;;;4.97;3.45;;;;;;;;;;5062499;28;20021;-78
2023/05/22 07:41:05;;;;;;;4.18;3.22;;;;;;;;;;5066518;28;20024;-78
2023/05/22 07:43:31;;;;;;;5.32;2.67;;;;;;;;;;5065218;28;20024;-79
2023/05/22 07:45:57;;;;;;;7.63;2.67;;;;;;;;;;5069511;28;20044;-78
2023/05/22 07:48:23;;;;;;;6.95;3.38;;;;;;;;;;5064591;28;20040;-78
2023/05/22 07:50:50;;;;;;;6.35;3.20;;;;;;;;;;5060590;28;20021;-78
2023/05/22 07:53:16;;;;;;;5.47;2.38;;;;;;;;;;5063834;28;20108;-78
2023/05/22 07:55:42;;;;;;;5.55;2.42;;;;;;;;;;5064619;28;20024;-78
2023/05/22 07:58:09;;;;;;;4.03;2.55;;;;;;;;;;5071233;28;20421;-78
2023/05/22 08:00:35;;;;;;;10.57;3.05;;;;;;;;;;5065149;28;20070;-77
2023/05/22 08:03:02;;;;;;;5.60;2.70;;;;;;;;;;5056947;28;20059;-77
2023/05/22 08:05:28;;;;;;;6.88;2.92;;;;;;;;;;5059908;28;20426;-80
2023/05/22 08:07:54;;;;;;;3.55;2.40;;;;;;;;;;5065126;28;20116;-78
2023/05/22 08:10:20;;;;;;;8.65;2.90;;;;;;;;;;5069855;28;20032;-79
2023/05/22 08:12:46;;;;;;;7.15;2.78;;;;;;;;;;5057744;28;20086;-78
2023/05/22 08:15:12;;;;;;;4.32;3.10;;;;;;;;;;5062339;28;20421;-78
2023/05/22 08:17:38;;;;;;;5.97;2.85;;;;;;;;;;5056797;28;20549;-78
2023/05/22 08:20:05;;;;;;;5.45;2.33;;;;;;;;;;5063059;28;20032;-79
2023/05/22 08:22:33;;;;;;;10.82;2.85;;;;;;;;;;5062985;28;20025;-78
2023/05/22 08:24:59;;;;;;;8.05;2.90;;;;;;;;;;5063270;28;20106;-78
2023/05/22 08:27:25;;;;;;;6.05;2.42;;;;;;;;;;5061982;28;20035;-78
2023/05/22 08:29:51;;;;;;;3.35;2.65;;;;;;;;;;5063936;28;20035;-78
2023/05/22 08:32:18;;;;;;;8.50;2.60;;;;;;;;;;5058603;28;20057;-78
2023/05/22 08:34:44;;;;;;;6.57;3.00;;;;;;;;;;5062440;28;20103;-78
2023/05/22 08:37:14;;;;;;;6.28;2.70;;;;;;;;;;5065336;28;20029;-78
2023/05/22 08:39:40;;;;;;;4.82;2.70;;;;;;;;;;5063626;28;20027;-78
2023/05/22 08:42:06;;;;;;;7.72;3.17;;;;;;;;;;5067986;28;20483;-78
2023/05/22 08:44:32;;;;;;;6.07;2.58;;;;;;;;;;5062041;28;20389;-78
2023/05/22 08:47:00;;;;;;;8.05;3.22;;;;;;;;;;5057568;28;20024;-78
2023/05/22 08:49:27;;;;;;;5.18;3.35;;;;;;;;;;5061038;28;20517;-77
2023/05/22 08:51:55;;;;;;;7.57;3.17;;;;;;;;;;5062512;28;20063;-79
2023/05/22 08:54:25;;;;;;;7.32;2.65;;;;;;;;;;5061123;28;20021;-77
2023/05/22 08:56:52;;;;;;;4.78;2.60;;;;;;;;;;5063776;28;20031;-77
2023/05/22 08:59:20;;;;;;;5.47;2.30;;;;;;;;;;5053608;28;20032;-77
2023/05/22 09:01:46;;;;;;;9.07;2.80;;;;;;;;;;5060990;28;20080;-78
2023/05/22 09:04:13;;;;;;;6.63;2.75;;;;;;;;;;5062534;28;20086;-79
2023/05/22 09:06:39;;;;;;;5.43;2.05;;;;;;;;;;5056410;28;20031;-79
2023/05/22 09:09:05;;;;;;;7.50;2.38;;;;;;;;;;5057949;28;20052;-78
2023/05/22 09:11:31;;;;;;;3.40;2.20;;;;;;;;;;5062385;28;20029;-77
2023/05/22 09:14:07;;;;;;;6.88;2.80;;;;;;;;;;5062274;28;20036;-78
2023/05/22 09:16:42;;;;;;;6.88;2.72;;;;;;;;;;5062587;28;20028;-78
2023/05/22 09:19:08;;;;;;;;;;;;;;;;;;5063675;28;20025;-78
2023/05/22 09:21:36;;;;;;;6.05;2.65;;;;;;;;;;5062776;28;19962;-77
2023/05/22 09:24:03;;;;;;;6.05;2.38;;;;;;;;;;5061549;28;20052;-78
2023/05/22 09:26:29;;;;;;;9.63;3.47;;;;;;;;;;5058089;28;20025;-77
2023/05/22 09:28:56;;;;;;;3.92;2.30;;;;;;;;;;5059709;28;20028;-76
2023/05/22 09:31:22;;;;;;;5.28;2.55;;;;;;;;;;5063091;28;20024;-77
2023/05/22 09:33:48;;;;;;;5.10;2.22;;;;;;;;;;5064674;28;20132;-79
2023/05/22 09:36:14;;;;;;;4.40;2.45;;;;;;;;;;5064587;28;20037;-78
2023/05/22 09:38:40;;;;;;;6.10;2.40;;;;;;;;;;5063513;28;20079;-77
2023/05/22 09:41:07;;;;;;;6.32;2.17;;;;;;;;;;5063498;28;20075;-78
2023/05/22 09:43:33;;;;;;;3.92;2.22;;;;;;;;;;5064249;28;20031;-78
2023/05/22 09:46:03;;;;;;;8.00;2.58;;;;;;;;;;5065510;28;20028;-78
2023/05/22 09:48:29;;;;;;;6.45;2.20;;;;;;;;;;5062573;28;20032;-79
2023/05/22 09:50:57;;;;;;;3.50;2.60;;;;;;;;;;5058573;28;20688;-77
2023/05/22 09:53:29;;;;;;;6.18;3.13;;;;;;;;;;5062813;28;20032;-78
2023/05/22 09:55:59;;;;;;;8.05;2.60;;;;;;;;;;5062999;28;20052;-78
2023/05/22 09:58:30;;;;;;;7.22;2.40;;;;;;;;;;5063882;28;20492;-78
2023/05/22 10:00:56;;;;;;;7.60;2.50;;;;;;;;;;5061199;28;20410;-77
2023/05/22 10:03:23;;;;;;;4.78;2.50;;;;;;;;;;5064202;28;20036;-78
2023/05/22 10:05:54;;;;;;;5.50;2.50;;;;;;;;;;5067796;28;20054;-78
2023/05/22 10:08:33;;;;;;;6.07;2.38;;;;;;;;;;5061125;28;20123;-78
2023/05/22 10:11:00;;;;;;;3.72;2.72;;;;;;;;;;5064355;28;20067;-79
2023/05/22 10:13:27;;;;;;;6.95;3.80;;;;;;;;;;5063209;28;20028;-79
2023/05/22 10:15:54;;;;;;;5.82;2.60;;;;;;;;;;5067112;28;20031;-78
2023/05/22 10:18:20;;;;;;;4.78;2.63;;;;;;;;;;5065014;28;20025;-78
2023/05/22 10:20:46;;;;;;;5.97;2.70;;;;;;;;;;5061288;28;20048;-78
2023/05/22 10:23:14;;;;;;;3.97;2.60;;;;;;;;;;5056997;28;20169;-78
2023/05/22 10:25:40;;;;;;;4.85;2.28;;;;;;;;;;5058137;28;20094;-78
2023/05/22 10:28:07;;;;;;;7.20;2.72;;;;;;;;;;5062376;28;20041;-78
2023/05/22 10:30:36;;;;;;;6.07;2.58;;;;;;;;;;5062641;28;20024;-78
2023/05/22 10:33:13;;;;;;;4.80;2.50;;;;;;;;;;5062699;28;20043;-78
2023/05/22 10:35:45;;;;;;;4.50;2.63;;;;;;;;;;5063906;28;20031;-78
2023/05/22 10:38:30;;;;;;;4.57;2.65;;;;;;;;;;5064331;28;20025;-77
2023/05/22 10:40:56;;;;;;;4.53;2.50;;;;;;;;;;5064553;28;20021;-77
2023/05/22 10:43:23;;;;;;;7.30;3.28;;;;;;;;;;5066596;28;20040;-77
2023/05/22 10:45:49;;;;;;;8.05;2.53;;;;;;;;;;5066892;28;20123;-79
2023/05/22 10:48:22;;;;;;;3.22;2.63;;;;;;;;;;5064745;28;20090;-78
2023/05/22 10:50:55;;;;;;;5.93;2.63;;;;;;;;;;5067766;28;20028;-78
2023/05/22 10:53:28;;;;;;;3.90;2.30;;;;;;;;;;5067770;28;20033;-78
2023/05/22 10:55:55;;;;;;;5.78;2.47;;;;;;;;;;5068828;28;20060;-79
2023/05/22 10:58:31;;;;;;;6.03;2.72;;;;;;;;;;5063972;28;20047;-77
2023/05/22 11:01:12;;;;;;;5.10;2.30;;;;;;;;;;5060740;28;20054;-77
2023/05/22 11:03:54;;;;;;;7.40;2.63;;;;;;;;;;5055991;28;20020;-78
2023/05/22 11:06:30;;;;;;;5.75;3.10;;;;;;;;;;5058996;28;20021;-77
2023/05/22 11:08:56;;;;;;;6.57;2.72;;;;;;;;;;5056554;28;20525;-78
2023/05/22 11:11:26;;;;;;;3.75;2.20;;;;;;;;;;5066419;28;20037;-78
2023/05/22 11:13:53;;;;;;;5.72;2.30;;;;;;;;;;5062373;28;20035;-79
2023/05/22 11:16:19;;;;;;;4.40;2.30;;;;;;;;;;5065363;28;20021;-79
2023/05/22 11:18:45;;;;;;;4.80;2.42;;;;;;;;;;5061316;28;20073;-78
2023/05/22 11:21:12;;;;;;;5.40;2.75;;;;;;;;;;5063383;28;20056;-79
2023/05/22 11:23:38;;;;;;;6.20;2.40;;;;;;;;;;5062150;28;20107;-78
2023/05/22 11:26:23;;;;;;;5.45;2.40;;;;;;;;;;5067030;28;20043;-79
2023/05/22 11:28:50;;;;;;;4.80;2.30;;;;;;;;;;5061069;28;20649;-79
2023/05/22 11:31:17;;;;;;;6.65;3.78;;;;;;;;;;5065006;28;20066;-78
2023/05/22 11:33:45;;;;;;;5.72;2.20;;;;;;;;;;5062542;28;20016;-78
2023/05/22 11:36:12;;;;;;;4.20;2.50;;;;;;;;;;5058787;28;20021;-78
2023/05/22 11:38:40;;;;;;;4.80;2.38;;;;;;;;;;5060311;28;20093;-79
2023/05/22 11:41:08;;;;;;;5.45;2.38;;;;;;;;;;5059242;28;20040;-79
2023/05/22 11:43:35;;;;;;;5.22;2.45;;;;;;;;;;5061302;28;20028;-78
2023/05/22 11:46:09;;;;;;;4.97;2.40;;;;;;;;;;5059760;28;20031;-78
2023/05/22 11:48:35;;;;;;;4.75;2.45;;;;;;;;;;5065062;28;20074;-78
2023/05/22 11:51:02;;;;;;;6.78;2.45;;;;;;;;;;5067889;28;20039;-79
2023/05/22 11:53:30;;;;;;;7.85;3.15;;;;;;;;;;5067796;28;20025;-76
2023/05/22 11:56:00;;;;;;;5.50;2.50;;;;;;;;;;5064618;28;20301;-77
2023/05/22 11:58:27;;;;;;;5.57;2.42;;;;;;;;;;5054466;28;20017;-78
2023/05/22 12:00:57;;;;;;;5.43;2.30;;;;;;;;;;5062785;28;20073;-79
2023/05/22 12:03:23;;;;;;;5.18;3.03;;;;;;;;;;5048658;28;20083;-78
2023/05/22 12:05:50;;;;;;;5.90;2.33;;;;;;;;;;5063750;28;20039;-77
2023/05/22 12:08:16;;;;;;;3.25;2.45;;;;;;;;;;5064007;28;20028;-77
2023/05/22 12:10:47;;;;;;;3.88;2.45;;;;;;;;;;5061631;28;20451;-78
2023/05/22 12:13:13;;;;;;;3.53;2.17;;;;;;;;;;5046227;28;20411;-77
2023/05/22 12:15:39;;;;;;;4.95;2.20;;;;;;;;;;5055911;28;20021;-78
2023/05/22 12:18:08;;;;;;;8.80;2.30;;;;;;;;;;5062641;28;20139;-79
2023/05/22 12:20:34;;;;;;;6.72;2.33;;;;;;;;;;5061484;28;20028;-79
2023/05/22 12:23:00;;;;;;;3.97;2.40;;;;;;;;;;5065382;28;20068;-79
2023/05/22 12:25:33;;;;;;;4.35;2.13;;;;;;;;;;5064404;28;20035;-82
2023/05/22 12:27:59;;;;;;;4.60;2.58;;;;;;;;;;5057027;28;20042;-78
2023/05/22 12:30:25;;;;;;;4.22;2.30;;;;;;;;;;5064606;28;20029;-79
2023/05/22 12:32:51;;;;;;;5.22;2.60;;;;;;;;;;5058725;28;20024;-78
2023/05/22 12:35:18;;;;;;;7.60;3.22;;;;;;;;;;5057752;28;20032;-79
2023/05/22 12:37:48;;;;;;;4.40;2.10;;;;;;;;;;5059308;28;20024;-79
2023/05/22 12:40:14;;;;;;;4.75;2.28;;;;;;;;;;5064731;28;20052;-79
2023/05/22 12:42:41;;;;;;;4.20;2.20;;;;;;;;;;5062208;28;20077;-79
2023/05/22 12:45:07;;;;;;;7.25;2.40;;;;;;;;;;5062545;28;20479;-79
2023/05/22 12:47:33;;;;;;;5.28;2.83;;;;;;;;;;5059855;28;20540;-78
2023/05/22 12:49:59;;;;;;;4.55;2.33;;;;;;;;;;5059906;28;20111;-78
2023/05/22 12:52:25;;;;;;;7.00;2.53;;;;;;;;;;5060119;28;20028;-79
2023/05/22 12:54:51;;;;;;;5.60;2.67;;;;;;;;;;5061508;28;20039;-78
2023/05/22 12:57:17;;;;;;;4.38;2.75;;;;;;;;;;5062614;28;20024;-79
2023/05/22 12:59:43;;;;;;;5.93;2.55;;;;;;;;;;5063495;28;20378;-80
2023/05/22 13:02:10;;;;;;;3.38;2.25;;;;;;;;;;5060951;28;20028;-79
2023/05/22 13:04:36;;;;;;;4.35;2.20;;;;;;;;;;5059971;28;20103;-79
2023/05/22 13:07:02;;;;;;;6.38;2.55;;;;;;;;;;5060541;28;20040;-78
2023/05/22 13:09:28;;;;;;;4.82;2.30;;;;;;;;;;5062074;28;20024;-79
2023/05/22 13:11:55;;;;;;;5.05;2.45;;;;;;;;;;5067014;28;20032;-80
2023/05/22 13:14:21;;;;;;;5.88;2.30;;;;;;;;;;5070735;28;20020;-81
2023/05/22 13:16:47;;;;;;;6.15;2.60;;;;;;;;;;5068539;28;20394;-81
2023/05/22 13:19:13;;;;;;;5.72;2.20;;;;;;;;;;5063260;28;20436;-78
2023/05/22 13:21:39;;;;;;;6.10;2.78;;;;;;;;;;5062911;28;20021;-79
2023/05/22 13:24:05;;;;;;;5.97;3.60;;;;;;;;;;5060048;28;20147;-80
2023/05/22 13:26:31;;;;;;;5.57;2.47;;;;;;;;;;5063264;28;20037;-83
2023/05/22 13:28:58;;;;;;;3.72;2.45;;;;;;;;;;5061822;28;20067;-79
2023/05/22 13:31:24;;;;;;;6.57;2.63;;;;;;;;;;5063938;28;20063;-80
2023/05/22 13:33:50;;;;;;;4.18;2.80;;;;;;;;;;5058627;28;20626;-80
2023/05/22 13:36:17;;;;;;;6.63;2.53;;;;;;;;;;5058356;28;20028;-80
2023/05/22 13:38:43;;;;;;;5.78;2.70;;;;;;;;;;5066328;28;20027;-78
2023/05/22 13:41:09;;;;;;;5.18;2.33;;;;;;;;;;5066231;28;20127;-79
2023/05/22 13:43:35;;;;;;;4.78;2.42;;;;;;;;;;5065149;28;20749;-80
2023/05/22 13:46:02;;;;;;;4.45;2.58;;;;;;;;;;5063151;28;20025;-79
2023/05/22 13:48:29;;;;;;;5.10;2.20;;;;;;;;;;5059903;28;20462;-79
2023/05/22 13:50:55;;;;;;;9.98;3.15;;;;;;;;;;5059018;28;20032;-82
2023/05/22 13:53:21;;;;;;;5.93;2.75;;;;;;;;;;5064943;28;20324;-78
2023/05/22 13:55:47;;;;;;;3.92;2.40;;;;;;;;;;5067251;28;20032;-79
2023/05/22 13:58:13;;;;;;;4.35;2.55;;;;;;;;;;5058072;28;20029;-79
2023/05/22 14:00:39;;;;;;;4.38;2.20;;;;;;;;;;5067508;28;20036;-79
2023/05/22 14:03:05;;;;;;;5.13;2.50;;;;;;;;;;5063234;28;20066;-79
2023/05/22 14:05:31;;;;;;;4.80;2.38;;;;;;;;;;5062754;28;20032;-83
2023/05/22 14:07:57;;;;;;;3.47;2.35;;;;;;;;;;5080235;28;20021;-80
2023/05/22 14:10:23;;;;;;;3.70;2.50;;;;;;;;;;5062983;28;20036;-79
2023/05/22 14:12:50;;;;;;;4.85;2.88;;;;;;;;;;5067198;28;20020;-79
2023/05/22 14:15:16;;;;;;;3.47;2.42;;;;;;;;;;5056333;28;20033;-78
2023/05/22 14:17:42;;;;;;;4.93;2.28;;;;;;;;;;5056322;28;20024;-79
2023/05/22 14:20:08;;;;;;;3.60;2.28;;;;;;;;;;5063981;28;20021;-79
2023/05/22 14:22:34;;;;;;;4.97;2.40;;;;;;;;;;5063265;28;20737;-80
2023/05/22 14:25:00;;;;;;;3.90;2.60;;;;;;;;;;5059672;28;20059;-79
2023/05/22 14:27:27;;;;;;;5.68;2.60;;;;;;;;;;5066061;28;20481;-79
2023/05/22 14:29:53;;;;;;;3.55;2.20;;;;;;;;;;5067200;28;20565;-80
2023/05/22 14:32:19;;;;;;;3.72;2.33;;;;;;;;;;5062754;28;20028;-79
2023/05/22 14:34:45;;;;;;;8.05;2.83;;;;;;;;;;5064026;28;20017;-82
2023/05/22 14:37:11;;;;;;;7.72;3.10;;;;;;;;;;5062100;28;20078;-79
2023/05/22 14:39:37;;;;;;;6.70;2.50;;;;;;;;;;5067624;28;20028;-79
2023/05/22 14:42:03;;;;;;;6.18;2.80;;;;;;;;;;5062719;28;20120;-80